sensor_id;sensor_type;location;lat;lon;timestamp;P1;durP1;ratioP1;P2;durP2;ratioP2
11998;SDS011;40817;51.520;9.954;2022-11-09T00:00:50;2.53;;;1.20;;
11998;SDS011;40817;51.520;9.954;2022-11-09T00:03:18;2.58;;;1.50;;
11998;SDS011;40817;51.520;9.954;2022-11-09T00:05:53;3.33;;;1.30;;
11998;SDS011;40817;51.520;9.954;2022-11-09T00:08:21;3.33;;;1.27;;
11998;SDS011;40817;51.520;9.954;2022-11-09T00:10:49;2.53;;;1.30;;
11998;SDS011;40817;51.520;9.954;2022-11-09T00:13:18;3.00;;;1.27;;
11998;SDS011;40817;51.520;9.954;2022-11-09T00:15:46;2.00;;;1.20;;
11998;SDS011;40817;51.520;9.954;2022-11-09T00:18:14;3.90;;;1.58;;
11998;SDS011;40817;51.520;9.954;2022-11-09T00:20:41;2.05;;;1.17;;
11998;SDS011;40817;51.520;9.954;2022-11-09T00:23:09;3.45;;;1.50;;
11998;SDS011;40817;51.520;9.954;2022-11-09T00:25:36;3.00;;;1.40;;
11998;SDS011;40817;51.520;9.954;2022-11-09T00:28:04;3.78;;;1.40;;
11998;SDS011;40817;51.520;9.954;2022-11-09T00:30:33;2.80;;;1.50;;
11998;SDS011;40817;51.520;9.954;2022-11-09T00:33:00;3.47;;;1.50;;
11998;SDS011;40817;51.520;9.954;2022-11-09T00:35:28;2.58;;;1.42;;
11998;SDS011;40817;51.520;9.954;2022-11-09T00:37:56;2.80;;;1.15;;
11998;SDS011;40817;51.520;9.954;2022-11-09T00:40:24;4.78;;;1.40;;
11998;SDS011;40817;51.520;9.954;2022-11-09T00:42:51;4.97;;;1.50;;
11998;SDS011;40817;51.520;9.954;2022-11-09T00:45:20;3.40;;;1.42;;
11998;SDS011;40817;51.520;9.954;2022-11-09T00:47:49;4.32;;;1.38;;
11998;SDS011;40817;51.520;9.954;2022-11-09T00:50:16;3.13;;;1.65;;
11998;SDS011;40817;51.520;9.954;2022-11-09T00:52:44;2.97;;;1.52;;
11998;SDS011;40817;51.520;9.954;2022-11-09T00:55:12;3.83;;;1.40;;
11998;SDS011;40817;51.520;9.954;2022-11-09T00:57:40;3.00;;;1.33;;
11998;SDS011;40817;51.520;9.954;2022-11-09T01:00:08;4.47;;;1.60;;
11998;SDS011;40817;51.520;9.954;2022-11-09T01:02:38;2.90;;;1.65;;
11998;SDS011;40817;51.520;9.954;2022-11-09T01:05:07;3.03;;;1.50;;
11998;SDS011;40817;51.520;9.954;2022-11-09T01:07:35;2.42;;;1.63;;
11998;SDS011;40817;51.520;9.954;2022-11-09T01:10:03;4.78;;;1.65;;
11998;SDS011;40817;51.520;9.954;2022-11-09T01:12:33;4.65;;;1.95;;
11998;SDS011;40817;51.520;9.954;2022-11-09T01:15:00;3.92;;;1.50;;
11998;SDS011;40817;51.520;9.954;2022-11-09T01:17:29;3.38;;;1.48;;
11998;SDS011;40817;51.520;9.954;2022-11-09T01:19:56;3.95;;;1.50;;
11998;SDS011;40817;51.520;9.954;2022-11-09T01:22:25;3.33;;;1.50;;
11998;SDS011;40817;51.520;9.954;2022-11-09T01:24:53;4.20;;;1.70;;
11998;SDS011;40817;51.520;9.954;2022-11-09T01:27:21;3.35;;;1.55;;
11998;SDS011;40817;51.520;9.954;2022-11-09T01:29:48;2.85;;;1.70;;
11998;SDS011;40817;51.520;9.954;2022-11-09T01:32:16;3.53;;;1.23;;
11998;SDS011;40817;51.520;9.954;2022-11-09T01:34:43;2.67;;;1.60;;
11998;SDS011;40817;51.520;9.954;2022-11-09T01:37:11;3.92;;;1.38;;
11998;SDS011;40817;51.520;9.954;2022-11-09T01:39:39;3.65;;;1.30;;
11998;SDS011;40817;51.520;9.954;2022-11-09T01:42:07;3.22;;;1.48;;
11998;SDS011;40817;51.520;9.954;2022-11-09T01:44:36;4.05;;;1.92;;
11998;SDS011;40817;51.520;9.954;2022-11-09T01:47:05;4.07;;;1.85;;
11998;SDS011;40817;51.520;9.954;2022-11-09T01:49:43;2.60;;;1.58;;
11998;SDS011;40817;51.520;9.954;2022-11-09T01:52:19;4.10;;;1.70;;
11998;SDS011;40817;51.520;9.954;2022-11-09T01:54:54;3.53;;;1.27;;
11998;SDS011;40817;51.520;9.954;2022-11-09T01:57:29;2.30;;;1.27;;
11998;SDS011;40817;51.520;9.954;2022-11-09T02:00:03;3.08;;;1.35;;
11998;SDS011;40817;51.520;9.954;2022-11-09T02:02:36;2.88;;;1.42;;
11998;SDS011;40817;51.520;9.954;2022-11-09T02:05:10;2.83;;;1.55;;
11998;SDS011;40817;51.520;9.954;2022-11-09T02:07:42;2.90;;;1.58;;
11998;SDS011;40817;51.520;9.954;2022-11-09T02:10:13;3.40;;;1.48;;
11998;SDS011;40817;51.520;9.954;2022-11-09T02:12:50;3.58;;;1.70;;
11998;SDS011;40817;51.520;9.954;2022-11-09T02:15:18;2.10;;;1.33;;
11998;SDS011;40817;51.520;9.954;2022-11-09T02:17:48;2.22;;;1.48;;
11998;SDS011;40817;51.520;9.954;2022-11-09T02:20:21;2.80;;;1.60;;
11998;SDS011;40817;51.520;9.954;2022-11-09T02:22:49;4.38;;;1.63;;
11998;SDS011;40817;51.520;9.954;2022-11-09T02:25:17;4.60;;;1.48;;
11998;SDS011;40817;51.520;9.954;2022-11-09T02:27:45;4.35;;;1.40;;
11998;SDS011;40817;51.520;9.954;2022-11-09T02:30:14;3.10;;;1.70;;
11998;SDS011;40817;51.520;9.954;2022-11-09T02:32:44;4.38;;;1.63;;
11998;SDS011;40817;51.520;9.954;2022-11-09T02:35:12;3.20;;;1.77;;
11998;SDS011;40817;51.520;9.954;2022-11-09T02:37:44;3.22;;;1.55;;
11998;SDS011;40817;51.520;9.954;2022-11-09T02:40:16;4.00;;;1.52;;
11998;SDS011;40817;51.520;9.954;2022-11-09T02:42:48;3.65;;;1.70;;
11998;SDS011;40817;51.520;9.954;2022-11-09T02:45:15;4.63;;;2.20;;
11998;SDS011;40817;51.520;9.954;2022-11-09T02:47:43;3.83;;;1.77;;
11998;SDS011;40817;51.520;9.954;2022-11-09T02:50:11;4.78;;;1.83;;
11998;SDS011;40817;51.520;9.954;2022-11-09T02:52:38;4.13;;;1.50;;
11998;SDS011;40817;51.520;9.954;2022-11-09T02:55:08;2.78;;;1.38;;
11998;SDS011;40817;51.520;9.954;2022-11-09T02:57:35;3.55;;;1.40;;
11998;SDS011;40817;51.520;9.954;2022-11-09T03:00:03;4.03;;;1.58;;
11998;SDS011;40817;51.520;9.954;2022-11-09T03:02:33;2.95;;;1.50;;
11998;SDS011;40817;51.520;9.954;2022-11-09T03:05:01;4.55;;;1.60;;
11998;SDS011;40817;51.520;9.954;2022-11-09T03:07:30;5.85;;;1.83;;
11998;SDS011;40817;51.520;9.954;2022-11-09T03:09:58;3.22;;;1.50;;
11998;SDS011;40817;51.520;9.954;2022-11-09T03:12:26;3.70;;;1.30;;
11998;SDS011;40817;51.520;9.954;2022-11-09T03:14:54;3.75;;;1.58;;
11998;SDS011;40817;51.520;9.954;2022-11-09T03:17:22;3.17;;;1.77;;
11998;SDS011;40817;51.520;9.954;2022-11-09T03:19:50;3.70;;;1.63;;
11998;SDS011;40817;51.520;9.954;2022-11-09T03:22:18;3.08;;;1.50;;
11998;SDS011;40817;51.520;9.954;2022-11-09T03:24:46;3.35;;;1.63;;
11998;SDS011;40817;51.520;9.954;2022-11-09T03:27:14;2.33;;;1.20;;
11998;SDS011;40817;51.520;9.954;2022-11-09T03:29:43;4.05;;;1.77;;
11998;SDS011;40817;51.520;9.954;2022-11-09T03:32:11;3.47;;;1.55;;
11998;SDS011;40817;51.520;9.954;2022-11-09T03:34:39;3.10;;;1.33;;
11998;SDS011;40817;51.520;9.954;2022-11-09T03:37:09;2.50;;;1.38;;
11998;SDS011;40817;51.520;9.954;2022-11-09T03:39:37;3.40;;;1.92;;
11998;SDS011;40817;51.520;9.954;2022-11-09T03:42:04;3.63;;;1.50;;
11998;SDS011;40817;51.520;9.954;2022-11-09T03:44:32;3.35;;;1.60;;
11998;SDS011;40817;51.520;9.954;2022-11-09T03:47:01;2.67;;;1.50;;
11998;SDS011;40817;51.520;9.954;2022-11-09T03:49:28;4.43;;;1.60;;
11998;SDS011;40817;51.520;9.954;2022-11-09T03:51:56;4.22;;;1.75;;
11998;SDS011;40817;51.520;9.954;2022-11-09T03:54:23;3.17;;;1.95;;
11998;SDS011;40817;51.520;9.954;2022-11-09T03:56:51;2.45;;;1.50;;
11998;SDS011;40817;51.520;9.954;2022-11-09T03:59:18;3.03;;;1.80;;
11998;SDS011;40817;51.520;9.954;2022-11-09T04:01:46;3.50;;;1.40;;
11998;SDS011;40817;51.520;9.954;2022-11-09T04:04:15;3.72;;;1.60;;
11998;SDS011;40817;51.520;9.954;2022-11-09T04:06:43;3.17;;;1.60;;
11998;SDS011;40817;51.520;9.954;2022-11-09T04:09:11;2.15;;;1.50;;
11998;SDS011;40817;51.520;9.954;2022-11-09T04:11:38;4.40;;;1.65;;
11998;SDS011;40817;51.520;9.954;2022-11-09T04:14:06;5.65;;;1.83;;
11998;SDS011;40817;51.520;9.954;2022-11-09T04:16:34;3.03;;;1.50;;
11998;SDS011;40817;51.520;9.954;2022-11-09T04:19:01;3.30;;;1.40;;
11998;SDS011;40817;51.520;9.954;2022-11-09T04:21:30;3.08;;;1.33;;
11998;SDS011;40817;51.520;9.954;2022-11-09T04:23:58;3.88;;;1.50;;
11998;SDS011;40817;51.520;9.954;2022-11-09T04:26:26;3.10;;;1.40;;
11998;SDS011;40817;51.520;9.954;2022-11-09T04:28:53;2.53;;;1.40;;
11998;SDS011;40817;51.520;9.954;2022-11-09T04:31:21;2.88;;;1.50;;
11998;SDS011;40817;51.520;9.954;2022-11-09T04:33:48;4.00;;;1.40;;
11998;SDS011;40817;51.520;9.954;2022-11-09T04:36:16;6.15;;;1.80;;
11998;SDS011;40817;51.520;9.954;2022-11-09T04:38:45;3.75;;;1.45;;
11998;SDS011;40817;51.520;9.954;2022-11-09T04:41:13;3.10;;;1.92;;
11998;SDS011;40817;51.520;9.954;2022-11-09T04:43:41;3.80;;;1.40;;
11998;SDS011;40817;51.520;9.954;2022-11-09T04:46:08;3.85;;;1.30;;
11998;SDS011;40817;51.520;9.954;2022-11-09T04:48:36;3.50;;;1.20;;
11998;SDS011;40817;51.520;9.954;2022-11-09T04:51:05;4.13;;;1.60;;
11998;SDS011;40817;51.520;9.954;2022-11-09T04:53:36;3.58;;;1.30;;
11998;SDS011;40817;51.520;9.954;2022-11-09T04:56:06;2.50;;;1.80;;
11998;SDS011;40817;51.520;9.954;2022-11-09T04:58:34;3.15;;;1.33;;
11998;SDS011;40817;51.520;9.954;2022-11-09T05:01:03;3.05;;;1.23;;
11998;SDS011;40817;51.520;9.954;2022-11-09T05:03:33;4.85;;;1.80;;
11998;SDS011;40817;51.520;9.954;2022-11-09T05:06:01;2.45;;;1.45;;
11998;SDS011;40817;51.520;9.954;2022-11-09T05:08:49;2.20;;;1.33;;
11998;SDS011;40817;51.520;9.954;2022-11-09T05:11:19;6.97;;;2.35;;
11998;SDS011;40817;51.520;9.954;2022-11-09T05:13:47;4.30;;;1.83;;
11998;SDS011;40817;51.520;9.954;2022-11-09T05:16:15;3.88;;;1.52;;
11998;SDS011;40817;51.520;9.954;2022-11-09T05:18:44;2.00;;;1.40;;
11998;SDS011;40817;51.520;9.954;2022-11-09T05:21:12;5.30;;;1.70;;
11998;SDS011;40817;51.520;9.954;2022-11-09T05:23:40;2.10;;;1.30;;
11998;SDS011;40817;51.520;9.954;2022-11-09T05:26:23;3.47;;;1.77;;
11998;SDS011;40817;51.520;9.954;2022-11-09T05:28:53;3.40;;;1.70;;
11998;SDS011;40817;51.520;9.954;2022-11-09T05:31:22;3.17;;;1.33;;
11998;SDS011;40817;51.520;9.954;2022-11-09T05:33:50;3.60;;;1.63;;
11998;SDS011;40817;51.520;9.954;2022-11-09T05:36:18;3.95;;;1.58;;
11998;SDS011;40817;51.520;9.954;2022-11-09T05:38:47;2.17;;;1.50;;
11998;SDS011;40817;51.520;9.954;2022-11-09T05:41:16;2.95;;;1.67;;
11998;SDS011;40817;51.520;9.954;2022-11-09T05:43:45;2.72;;;1.40;;
11998;SDS011;40817;51.520;9.954;2022-11-09T05:46:14;2.83;;;1.52;;
11998;SDS011;40817;51.520;9.954;2022-11-09T05:48:43;4.57;;;2.10;;
11998;SDS011;40817;51.520;9.954;2022-11-09T05:51:12;3.50;;;1.80;;
11998;SDS011;40817;51.520;9.954;2022-11-09T05:53:41;4.25;;;1.58;;
11998;SDS011;40817;51.520;9.954;2022-11-09T05:56:10;3.13;;;1.92;;
11998;SDS011;40817;51.520;9.954;2022-11-09T05:58:38;3.67;;;1.70;;
11998;SDS011;40817;51.520;9.954;2022-11-09T06:01:08;2.55;;;1.42;;
11998;SDS011;40817;51.520;9.954;2022-11-09T06:03:38;2.08;;;1.27;;
11998;SDS011;40817;51.520;9.954;2022-11-09T06:06:08;3.10;;;1.30;;
11998;SDS011;40817;51.520;9.954;2022-11-09T06:08:39;2.80;;;1.20;;
11998;SDS011;40817;51.520;9.954;2022-11-09T06:11:08;2.45;;;1.00;;
11998;SDS011;40817;51.520;9.954;2022-11-09T06:13:38;1.73;;;1.02;;
11998;SDS011;40817;51.520;9.954;2022-11-09T06:16:08;2.45;;;1.00;;
11998;SDS011;40817;51.520;9.954;2022-11-09T06:18:36;2.88;;;1.08;;
11998;SDS011;40817;51.520;9.954;2022-11-09T06:21:04;3.35;;;1.30;;
11998;SDS011;40817;51.520;9.954;2022-11-09T06:23:32;2.15;;;1.23;;
11998;SDS011;40817;51.520;9.954;2022-11-09T06:26:02;2.05;;;0.98;;
11998;SDS011;40817;51.520;9.954;2022-11-09T06:28:34;3.20;;;1.15;;
11998;SDS011;40817;51.520;9.954;2022-11-09T06:31:03;2.15;;;1.10;;
11998;SDS011;40817;51.520;9.954;2022-11-09T06:33:34;2.38;;;1.15;;
11998;SDS011;40817;51.520;9.954;2022-11-09T06:36:02;1.83;;;1.13;;
11998;SDS011;40817;51.520;9.954;2022-11-09T06:38:31;1.30;;;0.80;;
11998;SDS011;40817;51.520;9.954;2022-11-09T06:40:59;1.63;;;1.10;;
11998;SDS011;40817;51.520;9.954;2022-11-09T06:43:27;2.58;;;1.00;;
11998;SDS011;40817;51.520;9.954;2022-11-09T06:45:55;1.45;;;1.00;;
11998;SDS011;40817;51.520;9.954;2022-11-09T06:48:25;1.70;;;1.13;;
11998;SDS011;40817;51.520;9.954;2022-11-09T06:50:56;2.55;;;1.08;;
11998;SDS011;40817;51.520;9.954;2022-11-09T06:53:26;1.88;;;0.90;;
11998;SDS011;40817;51.520;9.954;2022-11-09T06:55:56;2.08;;;1.20;;
11998;SDS011;40817;51.520;9.954;2022-11-09T06:58:24;2.70;;;0.98;;
11998;SDS011;40817;51.520;9.954;2022-11-09T07:00:52;1.13;;;0.80;;
11998;SDS011;40817;51.520;9.954;2022-11-09T07:03:21;2.50;;;0.90;;
11998;SDS011;40817;51.520;9.954;2022-11-09T07:05:49;1.42;;;0.80;;
11998;SDS011;40817;51.520;9.954;2022-11-09T07:08:20;1.83;;;0.80;;
11998;SDS011;40817;51.520;9.954;2022-11-09T07:10:47;2.58;;;0.80;;
11998;SDS011;40817;51.520;9.954;2022-11-09T07:13:15;1.33;;;0.80;;
11998;SDS011;40817;51.520;9.954;2022-11-09T07:15:42;1.75;;;0.80;;
11998;SDS011;40817;51.520;9.954;2022-11-09T07:18:10;1.05;;;0.68;;
11998;SDS011;40817;51.520;9.954;2022-11-09T07:20:38;2.78;;;1.10;;
11998;SDS011;40817;51.520;9.954;2022-11-09T07:23:05;1.27;;;0.77;;
11998;SDS011;40817;51.520;9.954;2022-11-09T07:25:37;2.22;;;0.70;;
11998;SDS011;40817;51.520;9.954;2022-11-09T07:28:05;1.38;;;0.93;;
11998;SDS011;40817;51.520;9.954;2022-11-09T07:30:35;1.88;;;0.82;;
11998;SDS011;40817;51.520;9.954;2022-11-09T07:33:09;1.15;;;0.70;;
11998;SDS011;40817;51.520;9.954;2022-11-09T07:35:42;1.10;;;0.68;;
11998;SDS011;40817;51.520;9.954;2022-11-09T07:38:10;2.05;;;1.02;;
11998;SDS011;40817;51.520;9.954;2022-11-09T07:40:41;3.33;;;1.00;;
11998;SDS011;40817;51.520;9.954;2022-11-09T07:43:10;2.10;;;0.80;;
11998;SDS011;40817;51.520;9.954;2022-11-09T07:45:38;1.00;;;0.65;;
11998;SDS011;40817;51.520;9.954;2022-11-09T07:48:07;1.13;;;0.75;;
11998;SDS011;40817;51.520;9.954;2022-11-09T07:50:38;1.40;;;0.70;;
11998;SDS011;40817;51.520;9.954;2022-11-09T07:53:06;1.58;;;0.90;;
11998;SDS011;40817;51.520;9.954;2022-11-09T07:55:36;1.25;;;0.60;;
11998;SDS011;40817;51.520;9.954;2022-11-09T07:58:06;1.10;;;0.70;;
11998;SDS011;40817;51.520;9.954;2022-11-09T08:00:41;0.88;;;0.60;;
11998;SDS011;40817;51.520;9.954;2022-11-09T08:03:09;1.45;;;0.55;;
11998;SDS011;40817;51.520;9.954;2022-11-09T08:05:38;1.60;;;1.00;;
11998;SDS011;40817;51.520;9.954;2022-11-09T08:08:07;2.33;;;0.73;;
11998;SDS011;40817;51.520;9.954;2022-11-09T08:10:38;2.55;;;0.90;;
11998;SDS011;40817;51.520;9.954;2022-11-09T08:13:09;1.70;;;0.90;;
11998;SDS011;40817;51.520;9.954;2022-11-09T08:15:39;1.45;;;1.08;;
11998;SDS011;40817;51.520;9.954;2022-11-09T08:18:09;1.27;;;0.50;;
11998;SDS011;40817;51.520;9.954;2022-11-09T08:20:39;1.52;;;0.60;;
11998;SDS011;40817;51.520;9.954;2022-11-09T08:23:08;1.50;;;0.50;;
11998;SDS011;40817;51.520;9.954;2022-11-09T08:25:38;0.90;;;0.60;;
11998;SDS011;40817;51.520;9.954;2022-11-09T08:28:07;1.02;;;0.60;;
11998;SDS011;40817;51.520;9.954;2022-11-09T08:30:35;0.93;;;0.50;;
11998;SDS011;40817;51.520;9.954;2022-11-09T08:33:03;0.80;;;0.47;;
11998;SDS011;40817;51.520;9.954;2022-11-09T08:35:31;0.57;;;0.30;;
11998;SDS011;40817;51.520;9.954;2022-11-09T08:37:59;0.88;;;0.40;;
11998;SDS011;40817;51.520;9.954;2022-11-09T08:40:30;0.70;;;0.40;;
11998;SDS011;40817;51.520;9.954;2022-11-09T08:42:59;0.63;;;0.40;;
11998;SDS011;40817;51.520;9.954;2022-11-09T08:45:32;0.90;;;0.40;;
11998;SDS011;40817;51.520;9.954;2022-11-09T08:48:03;0.75;;;0.50;;
11998;SDS011;40817;51.520;9.954;2022-11-09T08:50:33;1.35;;;0.60;;
11998;SDS011;40817;51.520;9.954;2022-11-09T08:53:02;1.40;;;0.50;;
11998;SDS011;40817;51.520;9.954;2022-11-09T08:55:31;1.42;;;0.70;;
11998;SDS011;40817;51.520;9.954;2022-11-09T08:57:59;0.77;;;0.30;;
11998;SDS011;40817;51.520;9.954;2022-11-09T09:00:29;0.40;;;0.30;;
11998;SDS011;40817;51.520;9.954;2022-11-09T09:03:01;0.70;;;0.50;;
11998;SDS011;40817;51.520;9.954;2022-11-09T09:05:30;0.57;;;0.40;;
11998;SDS011;40817;51.520;9.954;2022-11-09T09:07:59;1.48;;;0.50;;
11998;SDS011;40817;51.520;9.954;2022-11-09T09:10:28;1.40;;;0.57;;
11998;SDS011;40817;51.520;9.954;2022-11-09T09:12:59;0.82;;;0.50;;
11998;SDS011;40817;51.520;9.954;2022-11-09T09:15:27;2.45;;;0.57;;
11998;SDS011;40817;51.520;9.954;2022-11-09T09:17:59;1.10;;;0.70;;
11998;SDS011;40817;51.520;9.954;2022-11-09T09:20:26;0.93;;;0.52;;
11998;SDS011;40817;51.520;9.954;2022-11-09T09:22:56;2.38;;;0.50;;
11998;SDS011;40817;51.520;9.954;2022-11-09T09:25:24;0.93;;;0.52;;
11998;SDS011;40817;51.520;9.954;2022-11-09T09:27:52;1.92;;;0.50;;
11998;SDS011;40817;51.520;9.954;2022-11-09T09:30:20;1.48;;;0.73;;
11998;SDS011;40817;51.520;9.954;2022-11-09T09:32:48;1.10;;;0.57;;
11998;SDS011;40817;51.520;9.954;2022-11-09T09:35:17;0.88;;;0.50;;
11998;SDS011;40817;51.520;9.954;2022-11-09T09:37:44;1.00;;;0.60;;
11998;SDS011;40817;51.520;9.954;2022-11-09T09:40:19;1.55;;;0.50;;
11998;SDS011;40817;51.520;9.954;2022-11-09T09:42:50;0.98;;;0.40;;
11998;SDS011;40817;51.520;9.954;2022-11-09T09:45:21;1.33;;;0.50;;
11998;SDS011;40817;51.520;9.954;2022-11-09T09:47:55;1.80;;;0.80;;
11998;SDS011;40817;51.520;9.954;2022-11-09T09:50:39;3.97;;;0.90;;
11998;SDS011;40817;51.520;9.954;2022-11-09T09:53:15;0.93;;;0.52;;
11998;SDS011;40817;51.520;9.954;2022-11-09T09:55:54;1.63;;;0.70;;
11998;SDS011;40817;51.520;9.954;2022-11-09T09:58:30;2.75;;;0.60;;
11998;SDS011;40817;51.520;9.954;2022-11-09T10:01:02;1.85;;;0.60;;
11998;SDS011;40817;51.520;9.954;2022-11-09T10:03:39;2.35;;;0.73;;
11998;SDS011;40817;51.520;9.954;2022-11-09T10:06:11;1.33;;;0.70;;
11998;SDS011;40817;51.520;9.954;2022-11-09T10:08:58;1.95;;;0.60;;
11998;SDS011;40817;51.520;9.954;2022-11-09T10:11:36;3.20;;;1.00;;
11998;SDS011;40817;51.520;9.954;2022-11-09T10:14:28;2.13;;;0.60;;
11998;SDS011;40817;51.520;9.954;2022-11-09T10:17:19;1.60;;;0.80;;
11998;SDS011;40817;51.520;9.954;2022-11-09T10:20:05;3.55;;;1.02;;
11998;SDS011;40817;51.520;9.954;2022-11-09T10:23:05;7.05;;;0.80;;
11998;SDS011;40817;51.520;9.954;2022-11-09T10:26:16;1.80;;;0.68;;
11998;SDS011;40817;51.520;9.954;2022-11-09T10:28:50;2.05;;;0.70;;
11998;SDS011;40817;51.520;9.954;2022-11-09T10:31:27;3.00;;;1.20;;
11998;SDS011;40817;51.520;9.954;2022-11-09T10:34:00;3.10;;;0.90;;
11998;SDS011;40817;51.520;9.954;2022-11-09T10:36:44;4.72;;;0.80;;
11998;SDS011;40817;51.520;9.954;2022-11-09T10:39:25;3.45;;;1.02;;
11998;SDS011;40817;51.520;9.954;2022-11-09T10:42:04;1.52;;;0.80;;
11998;SDS011;40817;51.520;9.954;2022-11-09T10:44:35;1.35;;;0.63;;
11998;SDS011;40817;51.520;9.954;2022-11-09T10:47:04;2.00;;;0.90;;
11998;SDS011;40817;51.520;9.954;2022-11-09T10:49:36;2.05;;;0.80;;
11998;SDS011;40817;51.520;9.954;2022-11-09T10:52:05;4.82;;;1.33;;
11998;SDS011;40817;51.520;9.954;2022-11-09T10:57:56;4.55;;;0.90;;
11998;SDS011;40817;51.520;9.954;2022-11-09T11:00:36;1.20;;;0.80;;
11998;SDS011;40817;51.520;9.954;2022-11-09T11:03:28;1.90;;;0.70;;
11998;SDS011;40817;51.520;9.954;2022-11-09T11:05:58;2.25;;;0.88;;
11998;SDS011;40817;51.520;9.954;2022-11-09T11:08:39;1.20;;;0.80;;
11998;SDS011;40817;51.520;9.954;2022-11-09T11:11:21;3.00;;;0.80;;
11998;SDS011;40817;51.520;9.954;2022-11-09T11:14:02;3.92;;;0.70;;
11998;SDS011;40817;51.520;9.954;2022-11-09T11:16:42;1.85;;;1.25;;
11998;SDS011;40817;51.520;9.954;2022-11-09T11:19:24;1.75;;;0.80;;
11998;SDS011;40817;51.520;9.954;2022-11-09T11:22:15;3.10;;;0.70;;
11998;SDS011;40817;51.520;9.954;2022-11-09T11:24:55;2.10;;;1.10;;
11998;SDS011;40817;51.520;9.954;2022-11-09T11:27:31;1.70;;;0.80;;
11998;SDS011;40817;51.520;9.954;2022-11-09T11:30:08;3.05;;;1.05;;
11998;SDS011;40817;51.520;9.954;2022-11-09T11:32:40;1.30;;;0.60;;
11998;SDS011;40817;51.520;9.954;2022-11-09T11:35:11;3.13;;;0.90;;
11998;SDS011;40817;51.520;9.954;2022-11-09T11:37:45;3.85;;;0.95;;
11998;SDS011;40817;51.520;9.954;2022-11-09T11:40:25;3.25;;;1.20;;
11998;SDS011;40817;51.520;9.954;2022-11-09T11:43:16;4.60;;;1.77;;
11998;SDS011;40817;51.520;9.954;2022-11-09T11:46:09;4.97;;;1.42;;
11998;SDS011;40817;51.520;9.954;2022-11-09T11:48:58;1.63;;;0.73;;
11998;SDS011;40817;51.520;9.954;2022-11-09T11:52:05;2.40;;;0.70;;
11998;SDS011;40817;51.520;9.954;2022-11-09T11:54:51;0.98;;;0.60;;
11998;SDS011;40817;51.520;9.954;2022-11-09T11:57:44;1.13;;;0.75;;
11998;SDS011;40817;51.520;9.954;2022-11-09T12:00:34;3.58;;;0.93;;
11998;SDS011;40817;51.520;9.954;2022-11-09T12:06:24;2.22;;;0.75;;
11998;SDS011;40817;51.520;9.954;2022-11-09T12:09:31;1.95;;;0.85;;
11998;SDS011;40817;51.520;9.954;2022-11-09T12:12:22;2.20;;;1.10;;
11998;SDS011;40817;51.520;9.954;2022-11-09T12:15:14;2.90;;;0.95;;
11998;SDS011;40817;51.520;9.954;2022-11-09T12:18:00;2.40;;;0.75;;
11998;SDS011;40817;51.520;9.954;2022-11-09T12:20:40;6.63;;;1.10;;
11998;SDS011;40817;51.520;9.954;2022-11-09T12:23:32;2.42;;;0.90;;
11998;SDS011;40817;51.520;9.954;2022-11-09T12:26:20;2.13;;;0.77;;
11998;SDS011;40817;51.520;9.954;2022-11-09T12:29:04;0.95;;;0.50;;
11998;SDS011;40817;51.520;9.954;2022-11-09T12:31:48;2.35;;;0.88;;
11998;SDS011;40817;51.520;9.954;2022-11-09T12:34:33;3.83;;;1.23;;
11998;SDS011;40817;51.520;9.954;2022-11-09T12:37:13;1.55;;;0.90;;
11998;SDS011;40817;51.520;9.954;2022-11-09T12:39:51;2.60;;;0.98;;
11998;SDS011;40817;51.520;9.954;2022-11-09T12:42:21;3.95;;;1.25;;
11998;SDS011;40817;51.520;9.954;2022-11-09T12:45:00;2.50;;;1.10;;
11998;SDS011;40817;51.520;9.954;2022-11-09T12:47:38;1.90;;;1.00;;
11998;SDS011;40817;51.520;9.954;2022-11-09T12:50:12;1.02;;;0.60;;
11998;SDS011;40817;51.520;9.954;2022-11-09T12:52:44;2.60;;;0.80;;
11998;SDS011;40817;51.520;9.954;2022-11-09T12:55:17;2.58;;;0.93;;
11998;SDS011;40817;51.520;9.954;2022-11-09T12:57:54;3.45;;;1.33;;
11998;SDS011;40817;51.520;9.954;2022-11-09T13:03:20;2.67;;;0.73;;
11998;SDS011;40817;51.520;9.954;2022-11-09T13:06:10;1.95;;;0.82;;
11998;SDS011;40817;51.520;9.954;2022-11-09T13:08:54;1.55;;;0.60;;
11998;SDS011;40817;51.520;9.954;2022-11-09T13:11:36;3.20;;;1.05;;
11998;SDS011;40817;51.520;9.954;2022-11-09T13:20:39;1.73;;;0.60;;
11998;SDS011;40817;51.520;9.954;2022-11-09T13:23:31;1.17;;;0.63;;
11998;SDS011;40817;51.520;9.954;2022-11-09T13:26:04;1.77;;;0.65;;
11998;SDS011;40817;51.520;9.954;2022-11-09T13:34:59;1.95;;;0.73;;
11998;SDS011;40817;51.520;9.954;2022-11-09T13:37:45;2.67;;;0.68;;
11998;SDS011;40817;51.520;9.954;2022-11-09T13:40:39;2.38;;;1.08;;
11998;SDS011;40817;51.520;9.954;2022-11-09T13:43:14;2.03;;;0.77;;
11998;SDS011;40817;51.520;9.954;2022-11-09T13:45:50;4.15;;;1.20;;
11998;SDS011;40817;51.520;9.954;2022-11-09T13:48:40;3.72;;;1.13;;
11998;SDS011;40817;51.520;9.954;2022-11-09T13:51:11;2.42;;;1.10;;
11998;SDS011;40817;51.520;9.954;2022-11-09T13:53:49;1.92;;;0.90;;
11998;SDS011;40817;51.520;9.954;2022-11-09T13:56:27;3.00;;;0.80;;
11998;SDS011;40817;51.520;9.954;2022-11-09T13:59:03;2.70;;;0.80;;
11998;SDS011;40817;51.520;9.954;2022-11-09T14:01:44;1.83;;;0.65;;
11998;SDS011;40817;51.520;9.954;2022-11-09T14:04:19;2.67;;;0.82;;
11998;SDS011;40817;51.520;9.954;2022-11-09T14:06:52;2.88;;;0.93;;
11998;SDS011;40817;51.520;9.954;2022-11-09T14:09:32;2.13;;;0.80;;
11998;SDS011;40817;51.520;9.954;2022-11-09T14:12:28;2.50;;;0.70;;
11998;SDS011;40817;51.520;9.954;2022-11-09T14:15:09;3.30;;;1.15;;
11998;SDS011;40817;51.520;9.954;2022-11-09T14:17:52;1.67;;;0.65;;
11998;SDS011;40817;51.520;9.954;2022-11-09T14:23:15;2.03;;;0.70;;
11998;SDS011;40817;51.520;9.954;2022-11-09T14:25:45;2.65;;;0.80;;
11998;SDS011;40817;51.520;9.954;2022-11-09T14:28:20;4.05;;;0.90;;
11998;SDS011;40817;51.520;9.954;2022-11-09T14:30:53;2.22;;;1.25;;
11998;SDS011;40817;51.520;9.954;2022-11-09T14:33:22;1.60;;;0.90;;
11998;SDS011;40817;51.520;9.954;2022-11-09T14:35:53;1.33;;;0.80;;
11998;SDS011;40817;51.520;9.954;2022-11-09T14:38:26;2.95;;;1.02;;
11998;SDS011;40817;51.520;9.954;2022-11-09T14:40:57;1.98;;;1.17;;
11998;SDS011;40817;51.520;9.954;2022-11-09T14:43:26;2.45;;;0.77;;
11998;SDS011;40817;51.520;9.954;2022-11-09T14:46:02;3.55;;;1.45;;
11998;SDS011;40817;51.520;9.954;2022-11-09T14:48:40;1.52;;;0.80;;
11998;SDS011;40817;51.520;9.954;2022-11-09T14:51:17;2.95;;;0.98;;
11998;SDS011;40817;51.520;9.954;2022-11-09T14:53:46;2.15;;;1.08;;
11998;SDS011;40817;51.520;9.954;2022-11-09T14:56:17;3.67;;;0.80;;
11998;SDS011;40817;51.520;9.954;2022-11-09T14:58:48;6.60;;;2.10;;
11998;SDS011;40817;51.520;9.954;2022-11-09T15:01:19;3.17;;;0.80;;
11998;SDS011;40817;51.520;9.954;2022-11-09T15:04:06;3.42;;;0.95;;
11998;SDS011;40817;51.520;9.954;2022-11-09T15:06:45;3.45;;;1.45;;
11998;SDS011;40817;51.520;9.954;2022-11-09T15:09:18;2.50;;;0.88;;
11998;SDS011;40817;51.520;9.954;2022-11-09T15:11:51;3.13;;;1.20;;
11998;SDS011;40817;51.520;9.954;2022-11-09T15:14:25;2.22;;;0.90;;
11998;SDS011;40817;51.520;9.954;2022-11-09T15:16:57;4.20;;;0.90;;
11998;SDS011;40817;51.520;9.954;2022-11-09T15:19:32;4.93;;;1.33;;
11998;SDS011;40817;51.520;9.954;2022-11-09T15:25:19;1.30;;;0.60;;
11998;SDS011;40817;51.520;9.954;2022-11-09T15:27:57;3.80;;;0.95;;
11998;SDS011;40817;51.520;9.954;2022-11-09T15:30:47;2.83;;;0.98;;
11998;SDS011;40817;51.520;9.954;2022-11-09T15:33:43;4.85;;;1.00;;
11998;SDS011;40817;51.520;9.954;2022-11-09T15:36:19;2.88;;;1.00;;
11998;SDS011;40817;51.520;9.954;2022-11-09T15:38:58;5.10;;;1.25;;
11998;SDS011;40817;51.520;9.954;2022-11-09T15:41:38;2.45;;;0.70;;
11998;SDS011;40817;51.520;9.954;2022-11-09T15:44:06;1.67;;;0.68;;
11998;SDS011;40817;51.520;9.954;2022-11-09T15:46:40;4.10;;;0.95;;
11998;SDS011;40817;51.520;9.954;2022-11-09T15:49:16;2.13;;;0.80;;